Time;durP1;ratioP1;P1;durP2;ratioP2;P2;SDS_P1;SDS_P2;PMS_P1;PMS_P2;Temp;Humidity;BMP_temperature;BMP_pressure;BME280_temperature;BME280_humidity;BME280_pressure;Samples;Min_cycle;Max_cycle;Signal;HPM_P1;HPM_P2
2021/12/29 00:00:02;;;;;;;13.05;9.15;;;;;;;;;;5044870;28;20040;-80
2021/12/29 00:02:28;;;;;;;12.88;9.75;;;;;;;;;;5061705;28;20068;-80
2021/12/29 00:04:54;;;;;;;13.75;9.88;;;;;;;;;;5045011;28;20036;-80
2021/12/29 00:07:21;;;;;;;12.68;10.20;;;;;;;;;;5047489;28;20064;-79
2021/12/29 00:09:47;;;;;;;14.90;10.05;;;;;;;;;;5065676;28;20128;-79
2021/12/29 00:12:15;;;;;;;11.90;9.75;;;;;;;;;;5066713;28;20045;-80
2021/12/29 00:14:41;;;;;;;10.77;9.50;;;;;;;;;;5048266;28;20036;-80
2021/12/29 00:17:07;;;;;;;16.70;9.55;;;;;;;;;;5048011;28;20041;-79
2021/12/29 00:19:33;;;;;;;13.23;10.30;;;;;;;;;;5047941;28;20041;-80
2021/12/29 00:21:59;;;;;;;13.02;10.23;;;;;;;;;;5066210;28;20041;-79
2021/12/29 00:24:25;;;;;;;13.10;9.73;;;;;;;;;;5050672;28;20029;-79
2021/12/29 00:26:51;;;;;;;12.88;10.18;;;;;;;;;;5071450;28;20073;-78
2021/12/29 00:29:17;;;;;;;15.13;10.75;;;;;;;;;;5067739;28;20052;-79
2021/12/29 00:31:43;;;;;;;13.00;10.98;;;;;;;;;;5066446;28;20096;-80
2021/12/29 00:34:09;;;;;;;14.52;11.73;;;;;;;;;;5054994;28;20048;-80
2021/12/29 00:36:35;;;;;;;15.82;10.95;;;;;;;;;;5069775;28;20041;-81
2021/12/29 00:39:01;;;;;;;13.88;11.77;;;;;;;;;;5065517;28;20120;-80
2021/12/29 00:41:27;;;;;;;15.18;11.63;;;;;;;;;;5047969;28;20041;-80
2021/12/29 00:43:55;;;;;;;16.00;12.55;;;;;;;;;;5047740;28;20048;-80
2021/12/29 00:46:21;;;;;;;17.55;13.25;;;;;;;;;;5063080;28;20372;-79
2021/12/29 00:48:48;;;;;;;19.02;13.57;;;;;;;;;;5045956;28;20120;-81
2021/12/29 00:51:14;;;;;;;18.27;12.82;;;;;;;;;;5046102;28;20037;-80
2021/12/29 00:53:40;;;;;;;17.75;14.73;;;;;;;;;;5045837;28;20056;-82
2021/12/29 00:56:06;;;;;;;24.98;15.40;;;;;;;;;;5063378;28;20134;-80
2021/12/29 00:58:32;;;;;;;22.10;16.23;;;;;;;;;;5063334;28;20051;-81
2021/12/29 01:00:58;;;;;;;19.38;15.13;;;;;;;;;;5063072;28;20069;-80
2021/12/29 01:03:24;;;;;;;20.73;14.98;;;;;;;;;;5060115;28;20041;-79
2021/12/29 01:05:50;;;;;;;20.13;16.10;;;;;;;;;;5043204;28;20048;-81
2021/12/29 01:08:16;;;;;;;20.40;16.52;;;;;;;;;;5063078;28;20117;-82
2021/12/29 01:10:42;;;;;;;26.92;18.92;;;;;;;;;;5065336;28;20045;-80
2021/12/29 01:13:10;;;;;;;24.17;17.15;;;;;;;;;;5051245;28;20041;-83
2021/12/29 01:15:55;;;;;;;24.20;18.27;;;;;;;;;;5067977;28;20404;-82
2021/12/29 01:18:21;;;;;;;23.33;18.67;;;;;;;;;;5052734;28;20112;-81
2021/12/29 01:20:47;;;;;;;23.65;18.77;;;;;;;;;;5072733;28;20047;-81
2021/12/29 01:23:13;;;;;;;25.77;19.08;;;;;;;;;;5072974;28;20033;-79
2021/12/29 01:25:39;;;;;;;25.02;18.65;;;;;;;;;;5071319;28;20045;-78
2021/12/29 01:28:05;;;;;;;24.48;17.38;;;;;;;;;;5054029;28;20065;-80
2021/12/29 01:30:31;;;;;;;20.13;15.55;;;;;;;;;;5050010;28;20097;-80
2021/12/29 01:33:00;;;;;;;19.10;15.13;;;;;;;;;;5049830;28;20094;-79
2021/12/29 01:35:25;;;;;;;18.88;14.32;;;;;;;;;;5066029;28;20036;-79
2021/12/29 01:37:51;;;;;;;17.63;12.40;;;;;;;;;;5065724;28;20048;-80
2021/12/29 01:40:18;;;;;;;17.58;12.52;;;;;;;;;;5049990;28;20049;-81
2021/12/29 01:42:44;;;;;;;14.95;11.68;;;;;;;;;;5050797;28;20037;-81
2021/12/29 01:45:10;;;;;;;15.18;10.77;;;;;;;;;;5067056;28;20487;-82
2021/12/29 01:47:36;;;;;;;12.93;10.40;;;;;;;;;;5065225;28;20099;-81
2021/12/29 01:50:04;;;;;;;15.65;9.88;;;;;;;;;;5064759;28;20052;-81
2021/12/29 01:52:36;;;;;;;12.38;9.40;;;;;;;;;;5064493;28;20036;-82
2021/12/29 01:55:02;;;;;;;10.60;8.97;;;;;;;;;;5065743;28;20090;-82
2021/12/29 01:57:28;;;;;;;14.88;10.07;;;;;;;;;;5045141;28;20271;-82
2021/12/29 01:59:54;;;;;;;13.43;8.95;;;;;;;;;;5061795;28;20040;-80
2021/12/29 02:02:20;;;;;;;11.55;8.88;;;;;;;;;;5063349;28;20040;-80
2021/12/29 02:04:46;;;;;;;11.75;8.18;;;;;;;;;;5063020;28;20131;-80
2021/12/29 02:07:12;;;;;;;12.73;9.65;;;;;;;;;;5045556;28;20041;-82
2021/12/29 02:09:39;;;;;;;15.82;10.52;;;;;;;;;;5046728;28;20076;-81
2021/12/29 02:12:05;;;;;;;18.10;10.95;;;;;;;;;;5047563;28;20457;-80
2021/12/29 02:14:31;;;;;;;14.55;10.90;;;;;;;;;;5046105;28;20033;-80
2021/12/29 02:16:57;;;;;;;14.02;9.85;;;;;;;;;;5047694;28;20052;-80
2021/12/29 02:19:25;;;;;;;15.07;10.82;;;;;;;;;;5064891;28;20033;-79
2021/12/29 02:22:00;;;;;;;14.57;10.48;;;;;;;;;;5047988;28;20076;-79
2021/12/29 02:24:37;;;;;;;16.55;11.38;;;;;;;;;;5063658;28;20052;-79
2021/12/29 02:27:04;;;;;;;15.80;11.55;;;;;;;;;;5049718;28;20037;-81
2021/12/29 02:29:30;;;;;;;17.50;11.25;;;;;;;;;;5049944;28;20106;-81
2021/12/29 02:31:56;;;;;;;15.05;11.43;;;;;;;;;;5067186;28;20087;-81
2021/12/29 02:34:22;;;;;;;15.50;10.85;;;;;;;;;;5066773;28;20033;-81
2021/12/29 02:36:48;;;;;;;18.52;11.60;;;;;;;;;;5065873;28;20037;-82
2021/12/29 02:39:15;;;;;;;14.10;10.85;;;;;;;;;;5048755;28;20108;-82
2021/12/29 02:41:46;;;;;;;14.07;10.38;;;;;;;;;;5047641;28;20032;-83
2021/12/29 02:44:17;;;;;;;17.02;10.75;;;;;;;;;;5063720;28;20033;-83
2021/12/29 02:46:43;;;;;;;13.70;10.50;;;;;;;;;;5048760;28;20079;-82
2021/12/29 02:49:09;;;;;;;16.85;10.77;;;;;;;;;;5062509;28;20064;-80
2021/12/29 02:51:35;;;;;;;14.15;10.73;;;;;;;;;;5045792;28;20045;-80
2021/12/29 02:54:01;;;;;;;16.38;12.10;;;;;;;;;;5046020;28;20440;-79
2021/12/29 02:56:28;;;;;;;18.00;12.02;;;;;;;;;;5045754;28;20438;-80
2021/12/29 02:58:54;;;;;;;18.67;12.95;;;;;;;;;;5047829;28;20036;-82
2021/12/29 03:01:20;;;;;;;22.95;14.18;;;;;;;;;;5063469;28;20033;-80
2021/12/29 03:03:46;;;;;;;18.25;13.73;;;;;;;;;;5046154;28;20040;-79
2021/12/29 03:06:13;;;;;;;18.38;13.73;;;;;;;;;;5046738;28;20175;-79
2021/12/29 03:08:39;;;;;;;16.75;13.27;;;;;;;;;;5066834;28;20056;-78
2021/12/29 03:11:05;;;;;;;20.60;13.18;;;;;;;;;;5049797;28;20061;-77
2021/12/29 03:13:31;;;;;;;19.02;13.15;;;;;;;;;;5055040;28;20048;-79
2021/12/29 03:15:57;;;;;;;16.75;12.63;;;;;;;;;;5067586;28;20464;-79
2021/12/29 03:18:23;;;;;;;18.90;13.60;;;;;;;;;;5045115;28;20051;-80
2021/12/29 03:20:50;;;;;;;17.05;12.48;;;;;;;;;;5049596;28;20124;-79
2021/12/29 03:23:16;;;;;;;19.63;13.75;;;;;;;;;;5067224;28;20128;-77
2021/12/29 03:25:42;;;;;;;19.77;13.02;;;;;;;;;;5063170;28;20047;-81
2021/12/29 03:28:08;;;;;;;19.00;13.50;;;;;;;;;;5047168;28;20113;-78
2021/12/29 03:30:35;;;;;;;17.98;13.63;;;;;;;;;;5046464;28;20044;-80
2021/12/29 03:33:05;;;;;;;17.73;12.43;;;;;;;;;;5046873;28;20048;-79
2021/12/29 03:35:36;;;;;;;20.10;13.00;;;;;;;;;;5047829;28;20033;-81
2021/12/29 03:38:02;;;;;;;16.27;12.40;;;;;;;;;;5049658;28;20098;-79
2021/12/29 03:40:28;;;;;;;19.35;11.68;;;;;;;;;;5049174;28;20132;-79
2021/12/29 03:42:54;;;;;;;18.10;12.10;;;;;;;;;;5061320;28;20083;-79
2021/12/29 03:45:20;;;;;;;13.43;10.57;;;;;;;;;;5061386;28;20131;-79
2021/12/29 03:47:46;;;;;;;14.48;10.82;;;;;;;;;;5068901;28;20107;-79
2021/12/29 03:50:12;;;;;;;13.93;11.32;;;;;;;;;;5064371;28;20049;-81
2021/12/29 03:52:39;;;;;;;14.23;11.18;;;;;;;;;;5050638;28;20064;-83
2021/12/29 03:55:05;;;;;;;16.55;10.50;;;;;;;;;;5047957;28;20037;-83
2021/12/29 03:57:31;;;;;;;12.73;10.18;;;;;;;;;;5061381;28;20437;-81
2021/12/29 03:59:57;;;;;;;14.60;9.07;;;;;;;;;;5044145;28;20041;-81
2021/12/29 04:02:23;;;;;;;16.35;9.32;;;;;;;;;;5043829;28;20049;-80
2021/12/29 04:04:49;;;;;;;14.55;9.73;;;;;;;;;;5044901;28;20061;-82
2021/12/29 04:07:15;;;;;;;12.98;9.60;;;;;;;;;;5063541;28;20346;-83
2021/12/29 04:09:41;;;;;;;13.35;9.80;;;;;;;;;;5063413;28;20035;-81
2021/12/29 04:12:07;;;;;;;14.95;9.98;;;;;;;;;;5062309;28;20037;-79
2021/12/29 04:14:33;;;;;;;14.50;11.40;;;;;;;;;;5044779;28;20083;-82
2021/12/29 04:17:08;;;;;;;15.85;11.43;;;;;;;;;;5045232;28;20036;-83
2021/12/29 04:20:54;;;;;;;14.43;10.88;;;;;;;;;;5062178;28;20063;-83
2021/12/29 04:22:26;;;;;;;20.73;12.23;;;;;;;;;;5065438;28;20041;-83
2021/12/29 04:24:52;;;;;;;16.15;11.70;;;;;;;;;;5048216;28;20045;-81
2021/12/29 04:27:21;;;;;;;15.02;10.45;;;;;;;;;;5047713;28;20122;-83
2021/12/29 04:29:47;;;;;;;19.20;12.30;;;;;;;;;;5049114;28;20037;-82
2021/12/29 04:32:13;;;;;;;17.73;11.88;;;;;;;;;;5064003;28;20064;-82
2021/12/29 04:34:39;;;;;;;16.88;12.30;;;;;;;;;;5047814;28;20041;-82
2021/12/29 04:37:05;;;;;;;19.20;12.70;;;;;;;;;;5062241;28;20123;-84
2021/12/29 04:39:31;;;;;;;14.55;11.20;;;;;;;;;;5062347;28;20128;-82
2021/12/29 04:41:57;;;;;;;14.93;10.95;;;;;;;;;;5062067;28;20032;-80
2021/12/29 04:44:24;;;;;;;14.75;10.75;;;;;;;;;;5063964;28;20479;-83
2021/12/29 04:46:50;;;;;;;16.95;11.10;;;;;;;;;;5050131;28;20036;-80
2021/12/29 04:49:22;;;;;;;14.35;9.57;;;;;;;;;;5051123;28;20079;-81
2021/12/29 04:51:55;;;;;;;15.48;10.65;;;;;;;;;;5052204;28;20049;-81
2021/12/29 04:54:21;;;;;;;;;;;;;;;;;;5052732;28;20072;-80
2021/12/29 04:56:47;;;;;;;14.20;10.45;;;;;;;;;;5069018;28;19909;-83
2021/12/29 04:59:15;;;;;;;14.32;10.93;;;;;;;;;;5050804;28;20067;-83
2021/12/29 05:01:41;;;;;;;17.60;12.88;;;;;;;;;;5066524;28;20087;-81
2021/12/29 05:04:08;;;;;;;17.23;11.90;;;;;;;;;;5052293;28;20037;-79
2021/12/29 05:09:18;;;;;;;15.48;10.02;;;;;;;;;;5074968;28;20100;-77
2021/12/29 05:11:46;;;;;;;17.00;9.82;;;;;;;;;;5067633;28;20041;-80
2021/12/29 05:14:13;;;;;;;13.20;9.30;;;;;;;;;;5049546;28;20052;-82
2021/12/29 05:16:39;;;;;;;12.35;8.95;;;;;;;;;;5068538;28;20045;-83
2021/12/29 05:19:05;;;;;;;16.73;9.35;;;;;;;;;;5070467;28;20052;-80
2021/12/29 05:21:31;;;;;;;14.27;8.95;;;;;;;;;;5067488;28;20037;-80
2021/12/29 05:23:57;;;;;;;15.90;8.88;;;;;;;;;;5051201;28;20037;-80
2021/12/29 05:26:23;;;;;;;13.05;8.80;;;;;;;;;;5051147;28;20063;-79
2021/12/29 05:28:49;;;;;;;16.75;9.73;;;;;;;;;;5057960;28;20041;-79
2021/12/29 05:31:15;;;;;;;13.95;9.68;;;;;;;;;;5074073;28;20084;-82
2021/12/29 05:33:41;;;;;;;16.45;10.48;;;;;;;;;;5051025;28;20467;-80
2021/12/29 05:36:07;;;;;;;17.95;11.32;;;;;;;;;;5049734;28;20051;-80
2021/12/29 05:38:33;;;;;;;16.80;12.05;;;;;;;;;;5049590;28;20045;-80
2021/12/29 05:40:59;;;;;;;20.55;14.15;;;;;;;;;;5050067;28;20087;-81
2021/12/29 05:43:25;;;;;;;18.10;12.77;;;;;;;;;;5049215;28;20037;-81
2021/12/29 05:45:51;;;;;;;20.40;12.57;;;;;;;;;;5066989;28;20037;-79
2021/12/29 05:48:18;;;;;;;18.98;12.90;;;;;;;;;;5066910;28;20055;-82
2021/12/29 05:50:44;;;;;;;18.85;12.52;;;;;;;;;;5049779;28;20442;-81
2021/12/29 05:53:10;;;;;;;18.77;11.65;;;;;;;;;;5049801;28;20047;-82
2021/12/29 05:55:36;;;;;;;17.40;11.35;;;;;;;;;;5050621;28;20115;-80
2021/12/29 05:58:02;;;;;;;15.68;11.48;;;;;;;;;;5066761;28;20059;-83
2021/12/29 06:00:28;;;;;;;15.45;10.95;;;;;;;;;;5050333;28;20127;-82
2021/12/29 06:02:54;;;;;;;17.40;10.60;;;;;;;;;;5054549;28;20064;-80
2021/12/29 06:05:21;;;;;;;21.65;10.95;;;;;;;;;;5055083;28;20044;-82
2021/12/29 06:07:47;;;;;;;15.85;10.75;;;;;;;;;;5054754;28;20098;-82
2021/12/29 06:10:13;;;;;;;15.73;10.90;;;;;;;;;;5072256;28;20048;-84
2021/12/29 06:12:39;;;;;;;19.75;11.27;;;;;;;;;;5051451;28;20507;-83
2021/12/29 06:15:05;;;;;;;15.35;10.60;;;;;;;;;;5074885;28;20057;-79
2021/12/29 06:17:31;;;;;;;21.10;11.63;;;;;;;;;;5079074;28;20085;-79
2021/12/29 06:19:57;;;;;;;14.43;10.07;;;;;;;;;;5071455;28;20033;-82
2021/12/29 06:22:23;;;;;;;16.25;10.10;;;;;;;;;;5070280;28;20048;-83
2021/12/29 06:24:52;;;;;;;17.40;9.95;;;;;;;;;;5075617;28;20037;-81
2021/12/29 06:27:19;;;;;;;15.70;9.02;;;;;;;;;;5065966;28;20041;-81
2021/12/29 06:29:45;;;;;;;12.82;7.88;;;;;;;;;;5047172;28;20115;-83
2021/12/29 06:32:11;;;;;;;15.15;8.27;;;;;;;;;;5062268;28;20388;-81
2021/12/29 06:34:37;;;;;;;10.40;7.40;;;;;;;;;;5063262;28;20072;-81
2021/12/29 06:37:08;;;;;;;16.52;7.32;;;;;;;;;;5060887;28;20041;-82
2021/12/29 06:39:35;;;;;;;14.98;6.22;;;;;;;;;;5060813;28;20037;-81
2021/12/29 06:42:01;;;;;;;12.93;6.05;;;;;;;;;;5059634;28;20370;-82
2021/12/29 06:44:27;;;;;;;10.85;4.90;;;;;;;;;;5041904;28;20124;-82
2021/12/29 06:46:53;;;;;;;10.10;3.90;;;;;;;;;;5057746;28;20045;-83
2021/12/29 06:49:19;;;;;;;6.40;3.80;;;;;;;;;;5041789;28;20101;-83
2021/12/29 06:51:46;;;;;;;7.22;3.38;;;;;;;;;;5061715;28;20098;-82
2021/12/29 06:54:12;;;;;;;5.03;3.15;;;;;;;;;;5045343;28;20036;-83
2021/12/29 06:56:38;;;;;;;7.47;2.38;;;;;;;;;;5041986;28;20044;-84
2021/12/29 06:59:04;;;;;;;5.72;2.42;;;;;;;;;;5064612;28;20033;-84
2021/12/29 07:01:30;;;;;;;5.50;3.13;;;;;;;;;;5066191;28;20120;-85
2021/12/29 07:03:56;;;;;;;7.57;3.40;;;;;;;;;;5057878;28;20080;-83
2021/12/29 07:06:22;;;;;;;5.38;3.40;;;;;;;;;;5076785;28;20040;-82
2021/12/29 07:08:48;;;;;;;7.05;4.18;;;;;;;;;;5044668;28;20056;-83
2021/12/29 07:11:14;;;;;;;6.65;4.30;;;;;;;;;;5045875;28;20052;-83
2021/12/29 07:13:41;;;;;;;7.10;4.50;;;;;;;;;;5064266;28;20045;-82
2021/12/29 07:16:07;;;;;;;5.93;4.10;;;;;;;;;;5046354;28;20041;-82
2021/12/29 07:18:33;;;;;;;8.48;5.10;;;;;;;;;;5062353;28;20088;-82
2021/12/29 07:20:59;;;;;;;8.75;6.25;;;;;;;;;;5045816;28;20061;-83
2021/12/29 07:23:25;;;;;;;13.45;7.68;;;;;;;;;;5047088;28;20820;-84
2021/12/29 07:25:51;;;;;;;13.75;9.55;;;;;;;;;;5075541;28;20021;-83
2021/12/29 07:28:17;;;;;;;15.32;10.10;;;;;;;;;;5078079;28;20069;-83
2021/12/29 07:30:43;;;;;;;16.92;12.15;;;;;;;;;;5070887;28;20108;-83
2021/12/29 07:33:09;;;;;;;20.13;13.27;;;;;;;;;;5064352;28;20036;-84
2021/12/29 07:35:35;;;;;;;21.85;15.50;;;;;;;;;;5064019;28;20468;-83
2021/12/29 07:38:01;;;;;;;20.10;15.57;;;;;;;;;;5063701;28;20071;-84
2021/12/29 07:40:27;;;;;;;19.25;15.10;;;;;;;;;;5064562;28;20521;-83
2021/12/29 07:42:53;;;;;;;24.50;16.42;;;;;;;;;;5046992;28;20064;-84
2021/12/29 07:45:19;;;;;;;24.77;17.58;;;;;;;;;;5061960;28;20049;-83
2021/12/29 07:47:47;;;;;;;24.38;17.98;;;;;;;;;;5061380;28;20045;-80
2021/12/29 07:50:14;;;;;;;26.70;19.67;;;;;;;;;;5062777;28;20063;-81
2021/12/29 07:52:40;;;;;;;28.90;21.02;;;;;;;;;;5060354;28;20047;-83
2021/12/29 07:55:06;;;;;;;26.90;20.10;;;;;;;;;;5054864;28;20473;-82
2021/12/29 07:57:32;;;;;;;29.33;22.75;;;;;;;;;;5044997;28;20041;-84
2021/12/29 07:59:59;;;;;;;33.30;23.40;;;;;;;;;;5054164;28;20051;-85
2021/12/29 08:02:27;;;;;;;31.83;23.40;;;;;;;;;;5065734;28;20044;-84
2021/12/29 08:04:53;;;;;;;30.48;22.58;;;;;;;;;;5062846;28;20043;-84
2021/12/29 08:07:19;;;;;;;31.70;21.38;;;;;;;;;;5061075;28;20452;-82
2021/12/29 08:09:45;;;;;;;33.10;22.80;;;;;;;;;;5060736;28;20036;-83
2021/12/29 08:12:11;;;;;;;33.65;23.42;;;;;;;;;;5062181;28;20341;-83
2021/12/29 08:14:37;;;;;;;30.48;23.42;;;;;;;;;;5044843;28;20067;-83
2021/12/29 08:17:03;;;;;;;36.10;24.23;;;;;;;;;;5063848;28;20052;-83
2021/12/29 08:19:29;;;;;;;30.92;23.55;;;;;;;;;;5045681;28;20055;-84
2021/12/29 08:21:55;;;;;;;31.25;24.10;;;;;;;;;;5048922;28;20067;-84
2021/12/29 08:24:21;;;;;;;35.83;25.27;;;;;;;;;;5049618;28;20114;-83
2021/12/29 08:26:47;;;;;;;35.90;25.02;;;;;;;;;;5050097;28;20067;-83
2021/12/29 08:29:13;;;;;;;36.38;25.60;;;;;;;;;;5067106;28;20491;-83
2021/12/29 08:31:39;;;;;;;34.50;23.88;;;;;;;;;;5066523;28;20098;-81
2021/12/29 08:34:05;;;;;;;34.03;25.33;;;;;;;;;;5049459;28;20475;-81
2021/12/29 08:36:31;;;;;;;37.03;26.98;;;;;;;;;;5066737;28;20044;-80
2021/12/29 08:38:57;;;;;;;39.53;26.35;;;;;;;;;;5067430;28;20034;-80
2021/12/29 08:41:23;;;;;;;34.35;26.17;;;;;;;;;;5055762;28;20147;-81
2021/12/29 08:43:49;;;;;;;40.50;27.65;;;;;;;;;;5053350;28;20151;-80
2021/12/29 08:46:16;;;;;;;45.28;29.08;;;;;;;;;;5066146;28;20056;-81
2021/12/29 08:48:42;;;;;;;43.70;30.23;;;;;;;;;;5049372;28;20056;-82
2021/12/29 08:51:08;;;;;;;46.38;30.63;;;;;;;;;;5065811;28;20041;-82
2021/12/29 08:53:35;;;;;;;51.55;32.50;;;;;;;;;;5065567;28;20037;-81
2021/12/29 08:56:01;;;;;;;46.53;32.40;;;;;;;;;;5069105;28;20061;-81
2021/12/29 08:58:27;;;;;;;51.53;33.90;;;;;;;;;;5056149;28;20036;-81
2021/12/29 09:00:54;;;;;;;57.55;34.65;;;;;;;;;;5079075;28;20037;-81
2021/12/29 09:03:20;;;;;;;56.25;35.45;;;;;;;;;;5062365;28;20069;-80
2021/12/29 09:05:46;;;;;;;47.03;33.72;;;;;;;;;;5062124;28;20041;-80
2021/12/29 09:08:12;;;;;;;49.20;32.92;;;;;;;;;;5061510;28;20040;-79
2021/12/29 09:10:38;;;;;;;47.22;32.53;;;;;;;;;;5080124;28;20049;-80
2021/12/29 09:13:04;;;;;;;48.25;32.50;;;;;;;;;;5076387;28;20127;-78
2021/12/29 09:15:30;;;;;;;48.60;33.03;;;;;;;;;;5076055;28;20051;-80
2021/12/29 09:17:56;;;;;;;46.67;32.35;;;;;;;;;;5054844;28;20064;-80
2021/12/29 09:20:27;;;;;;;46.67;31.75;;;;;;;;;;5074465;28;20041;-80
2021/12/29 09:22:54;;;;;;;47.35;33.60;;;;;;;;;;5061276;28;20177;-79
2021/12/29 09:25:21;;;;;;;47.13;32.72;;;;;;;;;;5074582;28;20101;-82
2021/12/29 09:27:49;;;;;;;45.90;31.80;;;;;;;;;;5058368;28;20033;-79
2021/12/29 09:30:16;;;;;;;44.95;31.50;;;;;;;;;;5057496;28;20101;-81
2021/12/29 09:32:42;;;;;;;45.88;31.02;;;;;;;;;;5057259;28;20059;-80
2021/12/29 09:35:08;;;;;;;46.17;29.13;;;;;;;;;;5073768;28;20037;-81
2021/12/29 09:37:34;;;;;;;47.55;30.77;;;;;;;;;;5056882;28;20072;-78
2021/12/29 09:40:00;;;;;;;49.70;30.85;;;;;;;;;;5057785;28;20044;-79
2021/12/29 09:42:26;;;;;;;43.22;30.25;;;;;;;;;;5059491;28;20048;-78
2021/12/29 09:44:52;;;;;;;50.92;30.67;;;;;;;;;;5059588;28;20045;-79
2021/12/29 09:47:19;;;;;;;43.35;31.08;;;;;;;;;;5077396;28;20053;-77
2021/12/29 09:49:45;;;;;;;47.47;31.30;;;;;;;;;;5056061;28;20032;-79
2021/12/29 09:52:11;;;;;;;46.47;30.92;;;;;;;;;;5052495;28;20098;-79
2021/12/29 09:54:37;;;;;;;43.03;30.67;;;;;;;;;;5069486;28;20037;-79
2021/12/29 09:57:03;;;;;;;43.90;29.70;;;;;;;;;;5055553;28;20023;-79
2021/12/29 09:59:29;;;;;;;41.30;29.25;;;;;;;;;;5072223;28;20060;-81
2021/12/29 10:01:57;;;;;;;42.40;29.02;;;;;;;;;;5058621;28;20048;-79
2021/12/29 10:04:23;;;;;;;40.15;27.70;;;;;;;;;;5074913;28;20045;-79
2021/12/29 10:06:49;;;;;;;36.50;27.20;;;;;;;;;;5059164;28;20051;-79
2021/12/29 10:09:15;;;;;;;39.88;26.80;;;;;;;;;;5059232;28;20041;-79
2021/12/29 10:11:42;;;;;;;37.65;26.17;;;;;;;;;;5057366;28;20073;-84
2021/12/29 10:14:09;;;;;;;44.10;28.45;;;;;;;;;;5058480;28;20057;-80
2021/12/29 10:16:35;;;;;;;35.63;26.75;;;;;;;;;;5071352;28;20041;-81
2021/12/29 10:19:02;;;;;;;37.80;27.10;;;;;;;;;;5043192;28;20099;-81
2021/12/29 10:21:28;;;;;;;41.35;26.58;;;;;;;;;;5043605;28;20120;-82
2021/12/29 10:23:55;;;;;;;39.35;26.00;;;;;;;;;;5043290;28;20064;-80
2021/12/29 10:26:22;;;;;;;37.88;25.17;;;;;;;;;;5059107;28;20041;-81
2021/12/29 10:28:49;;;;;;;35.72;25.40;;;;;;;;;;5062553;28;20040;-82
2021/12/29 10:31:16;;;;;;;35.80;23.52;;;;;;;;;;5041609;28;20055;-79
2021/12/29 10:33:53;;;;;;;35.30;24.33;;;;;;;;;;5058683;28;20037;-80
2021/12/29 10:36:24;;;;;;;36.50;24.17;;;;;;;;;;5040644;28;20037;-82
2021/12/29 10:38:51;;;;;;;36.55;23.77;;;;;;;;;;5057753;28;20065;-80
2021/12/29 10:41:17;;;;;;;36.60;23.20;;;;;;;;;;5041692;28;20051;-81
2021/12/29 10:43:50;;;;;;;33.53;22.35;;;;;;;;;;5040729;28;20044;-81
2021/12/29 10:46:22;;;;;;;31.13;22.52;;;;;;;;;;5042767;28;20056;-81
2021/12/29 10:48:50;;;;;;;37.42;23.55;;;;;;;;;;5063384;28;20060;-81
2021/12/29 10:51:16;;;;;;;29.48;21.08;;;;;;;;;;5048676;28;20058;-82
2021/12/29 10:53:42;;;;;;;28.63;21.17;;;;;;;;;;5065474;28;20033;-82
2021/12/29 10:56:18;;;;;;;29.75;19.90;;;;;;;;;;5048951;28;20048;-82
2021/12/29 10:58:44;;;;;;;30.92;19.67;;;;;;;;;;5064930;28;20041;-82
2021/12/29 11:01:11;;;;;;;27.65;19.75;;;;;;;;;;5049221;28;20111;-82
2021/12/29 11:03:45;;;;;;;27.77;17.90;;;;;;;;;;5062092;28;20112;-82
2021/12/29 11:06:12;;;;;;;24.27;16.95;;;;;;;;;;5045178;28;20052;-82
2021/12/29 11:08:54;;;;;;;22.17;16.75;;;;;;;;;;5044590;28;20102;-79
2021/12/29 11:11:21;;;;;;;23.48;15.02;;;;;;;;;;5040494;28;20045;-81
2021/12/29 11:13:47;;;;;;;24.27;14.25;;;;;;;;;;5040322;28;20448;-82
2021/12/29 11:16:13;;;;;;;19.92;13.45;;;;;;;;;;5057339;28;20062;-82
2021/12/29 11:18:40;;;;;;;18.48;13.00;;;;;;;;;;5057389;28;20044;-82
2021/12/29 11:21:06;;;;;;;23.13;13.73;;;;;;;;;;5040300;28;20416;-82
2021/12/29 11:23:31;;;;;;;18.20;12.32;;;;;;;;;;5056298;28;20068;-82
2021/12/29 11:26:00;;;;;;;19.52;12.48;;;;;;;;;;5057067;28;20083;-82
2021/12/29 11:28:27;;;;;;;18.98;11.93;;;;;;;;;;5040088;28;20051;-82
2021/12/29 11:30:54;;;;;;;16.65;11.57;;;;;;;;;;5040245;28;20036;-82
2021/12/29 11:33:20;;;;;;;17.55;11.40;;;;;;;;;;5057005;28;20037;-81
2021/12/29 11:35:47;;;;;;;18.80;11.75;;;;;;;;;;5058105;28;20079;-81
2021/12/29 11:38:13;;;;;;;13.63;10.80;;;;;;;;;;5039986;28;20135;-80
2021/12/29 11:40:40;;;;;;;16.52;11.10;;;;;;;;;;5040421;28;20392;-82
2021/12/29 11:43:09;;;;;;;17.88;11.30;;;;;;;;;;5056563;28;20053;-81
2021/12/29 11:45:39;;;;;;;14.60;10.38;;;;;;;;;;5058734;28;20119;-82
2021/12/29 11:48:05;;;;;;;14.07;10.55;;;;;;;;;;5042504;28;20494;-82
2021/12/29 11:50:33;;;;;;;15.15;10.20;;;;;;;;;;5060241;28;20040;-82
2021/12/29 11:53:17;;;;;;;14.40;9.77;;;;;;;;;;5042358;28;20040;-83
2021/12/29 11:55:45;;;;;;;16.45;10.25;;;;;;;;;;5060301;28;20044;-81
2021/12/29 11:58:31;;;;;;;15.88;10.63;;;;;;;;;;5043749;28;20043;-82
2021/12/29 12:01:02;;;;;;;16.92;10.15;;;;;;;;;;5063898;28;20055;-81
2021/12/29 12:03:37;;;;;;;15.02;9.90;;;;;;;;;;5059822;28;20051;-83
2021/12/29 12:06:05;;;;;;;15.50;10.00;;;;;;;;;;5043521;28;20048;-83
2021/12/29 12:08:32;;;;;;;17.85;9.38;;;;;;;;;;5042287;28;20109;-83
2021/12/29 12:11:00;;;;;;;18.73;10.82;;;;;;;;;;5060685;28;20044;-83
2021/12/29 12:13:30;;;;;;;16.90;11.10;;;;;;;;;;5062153;28;20107;-83
2021/12/29 12:16:11;;;;;;;19.85;10.93;;;;;;;;;;5041387;28;20047;-82
2021/12/29 12:18:44;;;;;;;15.45;10.25;;;;;;;;;;5057835;28;20044;-82
2021/12/29 12:21:19;;;;;;;15.23;9.98;;;;;;;;;;5045078;28;20041;-81
2021/12/29 12:23:48;;;;;;;18.52;10.02;;;;;;;;;;5047268;28;20121;-81
2021/12/29 12:26:18;;;;;;;13.13;8.95;;;;;;;;;;5059112;28;20041;-83
2021/12/29 12:28:44;;;;;;;18.52;10.50;;;;;;;;;;5043288;28;20041;-82
2021/12/29 12:31:20;;;;;;;25.25;10.27;;;;;;;;;;5043653;28;20465;-82
2021/12/29 12:33:46;;;;;;;14.82;9.93;;;;;;;;;;5061483;28;20041;-81
2021/12/29 12:36:12;;;;;;;16.65;9.50;;;;;;;;;;5046008;28;20048;-79
2021/12/29 12:38:38;;;;;;;15.23;9.73;;;;;;;;;;5066337;28;20048;-81
2021/12/29 12:41:07;;;;;;;15.50;10.00;;;;;;;;;;5046250;28;20124;-81
2021/12/29 12:43:37;;;;;;;18.35;10.60;;;;;;;;;;5056974;28;20041;-81
2021/12/29 12:46:03;;;;;;;16.27;10.80;;;;;;;;;;5056371;28;20044;-78
2021/12/29 12:48:30;;;;;;;17.10;12.05;;;;;;;;;;5055693;28;20378;-79
2021/12/29 12:50:57;;;;;;;21.88;12.45;;;;;;;;;;5039773;28;20041;-83
2021/12/29 12:53:39;;;;;;;20.25;13.15;;;;;;;;;;5056419;28;20037;-80
2021/12/29 12:56:08;;;;;;;19.40;12.57;;;;;;;;;;5056363;28;20044;-80
2021/12/29 12:58:38;;;;;;;24.67;13.98;;;;;;;;;;5040559;28;20037;-82
2021/12/29 13:01:26;;;;;;;20.48;12.95;;;;;;;;;;5040237;28;20041;-81
2021/12/29 13:03:53;;;;;;;18.55;12.88;;;;;;;;;;5056010;28;20041;-81
2021/12/29 13:06:22;;;;;;;23.02;13.57;;;;;;;;;;5054752;28;20037;-81
2021/12/29 13:08:48;;;;;;;21.67;13.20;;;;;;;;;;5059927;28;20067;-80
2021/12/29 13:11:15;;;;;;;25.73;13.90;;;;;;;;;;5045285;28;20067;-80
2021/12/29 13:13:42;;;;;;;23.92;14.15;;;;;;;;;;5055638;28;20131;-82
2021/12/29 13:16:13;;;;;;;22.77;13.57;;;;;;;;;;5080568;28;20028;-81
2021/12/29 13:18:39;;;;;;;20.52;13.07;;;;;;;;;;5059134;28;20044;-82
2021/12/29 13:21:06;;;;;;;22.63;13.13;;;;;;;;;;5062939;28;20064;-81
2021/12/29 13:23:32;;;;;;;19.75;12.30;;;;;;;;;;5059095;28;20033;-82
2021/12/29 13:25:58;;;;;;;19.27;12.20;;;;;;;;;;5060082;28;20037;-80
2021/12/29 13:28:25;;;;;;;19.70;11.73;;;;;;;;;;5059158;28;20116;-82
2021/12/29 13:30:52;;;;;;;18.20;11.57;;;;;;;;;;5042339;28;20045;-82
2021/12/29 13:33:28;;;;;;;25.85;12.65;;;;;;;;;;5042595;28;20120;-82
2021/12/29 13:35:55;;;;;;;23.83;12.80;;;;;;;;;;5042651;28;20063;-82
2021/12/29 13:38:21;;;;;;;24.70;13.05;;;;;;;;;;5044103;28;20045;-83
2021/12/29 13:40:49;;;;;;;17.95;12.85;;;;;;;;;;5044040;28;20041;-82
2021/12/29 13:43:28;;;;;;;25.50;13.18;;;;;;;;;;5061623;28;20052;-80
2021/12/29 13:45:55;;;;;;;22.63;12.90;;;;;;;;;;5044826;28;20182;-82
2021/12/29 13:48:25;;;;;;;21.92;11.93;;;;;;;;;;5042351;28;20148;-82
2021/12/29 13:51:02;;;;;;;23.05;11.85;;;;;;;;;;5058831;28;20368;-82
2021/12/29 13:53:28;;;;;;;18.63;11.20;;;;;;;;;;5042347;28;20033;-82
2021/12/29 13:55:56;;;;;;;24.75;11.20;;;;;;;;;;5042317;28;20453;-82
2021/12/29 13:58:22;;;;;;;18.77;9.68;;;;;;;;;;5041842;28;20441;-82
2021/12/29 14:00:48;;;;;;;17.27;10.00;;;;;;;;;;5063275;28;20028;-82
2021/12/29 14:03:14;;;;;;;14.73;9.07;;;;;;;;;;5079323;28;20055;-81
2021/12/29 14:05:42;;;;;;;19.13;9.13;;;;;;;;;;5050965;28;20045;-82
2021/12/29 14:08:12;;;;;;;15.73;8.98;;;;;;;;;;5059806;28;20032;-82
2021/12/29 14:10:41;;;;;;;12.98;8.20;;;;;;;;;;5042273;28;20041;-83
2021/12/29 14:13:12;;;;;;;19.83;9.23;;;;;;;;;;5043158;28;20037;-81
2021/12/29 14:15:38;;;;;;;17.98;8.60;;;;;;;;;;5042096;28;20094;-81
2021/12/29 14:18:10;;;;;;;14.80;8.25;;;;;;;;;;5042529;28;20045;-82
2021/12/29 14:20:37;;;;;;;13.35;7.75;;;;;;;;;;5042555;28;20037;-78
2021/12/29 14:23:03;;;;;;;16.60;7.78;;;;;;;;;;5058961;28;20064;-79